• Join FlightAware (Why Join?)
  • Login
  • US Flag 
06:58PM EST


 

Airport Tracker/Info


-or-


 

Live Flight TrackerFlight Track Log ✈ N588AC ✈ 22-Apr-2013 ✈ KBCB - KGSO

Flight Track Log - Related Links

Times and Time Zones

All times are in EDT time to prevent confusion due to time zone crossing. See the N588AC flight status page for this flight to view local times or setup timezone preferences in your user account.

Time Position Orientation Groundspeed Altitude Reporting Facility
EDT Latitude Longitude Course Direction KTS MPH feet Rate Location/Type
12:00PM 37.1740 -80.3934 161° South  Level Estimated
12:01PM 37.1261 -80.3729 161° South  Level Estimated
12:02PM 37.0781 -80.3524 161° South  Level Estimated
12:03PM 37.0301 -80.3320 161° South  Level Estimated
12:04PM 36.9821 -80.3115 161° South  Level Estimated
12:05PM 36.9341 -80.2911 161° South  Level Estimated
12:06PM 36.8861 -80.2707 161° South  Level Estimated
12:07PM 36.8381 -80.2504 161° South  Level Estimated
12:08PM 36.7901 -80.2300 161° South  Level Estimated
12:09PM 36.7421 -80.2097 161° South  Level Estimated
12:10PM 36.6940 -80.1894 161° South  Level Estimated
12:11PM 36.6460 -80.1691 161° South  Level Estimated
12:12PM 36.5980 -80.1489 161° South  Level Estimated
12:13PM 36.5500 -80.1287 161° South  Level Estimated
12:14PM 36.5019 -80.1085 161° South  Level Estimated
12:15PM 36.4539 -80.0883 161° South  Level Estimated
12:16PM 36.3936 -80.0631 161° South  Level Estimated
12:17PM 36.3333 -80.0378 161° South  Level Estimated
12:18PM 36.2730 -80.0126 161° South  Level Estimated
12:19PM 36.2127 -79.9875 161° South  Level Estimated
12:20PM 36.1523 -79.9623 161° South  Level Estimated
12:21PM 36.1013 -79.9411 161° South  Level Estimated
12:22PM 36.1013 -79.9411 214° Southwest  Level Estimated
12:23PM 36.1013 -79.9411 214° Southwest  Level Estimated
12:24PM 36.1013 -79.9411 214° Southwest  Level Estimated
12:25PM 36.1013 -79.9411 214° Southwest  Level Estimated
12:26PM 36.1013 -79.9411 214° Southwest  Level Estimated
12:27PM 36.1013 -79.9411 214° Southwest  Level Estimated
12:28PM 36.1013 -79.9411 214° Southwest  Level Estimated
12:29PM 36.1013 -79.9411 214° Southwest  Level Estimated
12:30PM 36.1013 -79.9411 214° Southwest  Level Estimated
12:31PM 36.1013 -79.9411 214° Southwest  Level Estimated
12:32PM 36.1013 -79.9411 214° Southwest  Level Estimated
12:33PM 36.1013 -79.9411 214° Southwest  Level Estimated
12:34PM 36.1013 -79.9411 214° Southwest  Level Estimated
12:35PM 36.1013 -79.9411 214° Southwest  Level Estimated
12:36PM 36.1013 -79.9411 214° Southwest  Level Estimated
12:37PM 36.1013 -79.9411 214° Southwest  Level Estimated
12:38PM 36.1013 -79.9411 214° Southwest  Level Estimated